sensor_id;sensor_type;location;lat;lon;timestamp;P1;durP1;ratioP1;P2;durP2;ratioP2
41661;SDS011;27351;45.992;12.666;2023-07-24T00:01:27;12.77;;;5.93;;
41661;SDS011;27351;45.992;12.666;2023-07-24T00:03:53;10.90;;;5.60;;
41661;SDS011;27351;45.992;12.666;2023-07-24T00:06:20;11.98;;;5.50;;
41661;SDS011;27351;45.992;12.666;2023-07-24T00:08:45;12.57;;;6.00;;
41661;SDS011;27351;45.992;12.666;2023-07-24T00:11:11;13.67;;;6.60;;
41661;SDS011;27351;45.992;12.666;2023-07-24T00:13:36;12.30;;;5.67;;
41661;SDS011;27351;45.992;12.666;2023-07-24T00:16:06;10.83;;;5.63;;
41661;SDS011;27351;45.992;12.666;2023-07-24T00:18:31;11.68;;;5.85;;
41661;SDS011;27351;45.992;12.666;2023-07-24T00:20:57;12.40;;;5.90;;
41661;SDS011;27351;45.992;12.666;2023-07-24T00:23:22;12.68;;;5.60;;
41661;SDS011;27351;45.992;12.666;2023-07-24T00:25:48;11.37;;;5.40;;
41661;SDS011;27351;45.992;12.666;2023-07-24T00:28:13;11.63;;;5.43;;
41661;SDS011;27351;45.992;12.666;2023-07-24T00:30:39;10.40;;;5.33;;
41661;SDS011;27351;45.992;12.666;2023-07-24T00:33:04;10.52;;;5.78;;
41661;SDS011;27351;45.992;12.666;2023-07-24T00:35:30;10.40;;;5.70;;
41661;SDS011;27351;45.992;12.666;2023-07-24T00:37:55;11.23;;;5.30;;
41661;SDS011;27351;45.992;12.666;2023-07-24T00:40:21;11.03;;;5.40;;
41661;SDS011;27351;45.992;12.666;2023-07-24T00:42:49;9.93;;;5.40;;
41661;SDS011;27351;45.992;12.666;2023-07-24T00:45:15;11.23;;;5.40;;
41661;SDS011;27351;45.992;12.666;2023-07-24T00:47:41;9.87;;;4.90;;
41661;SDS011;27351;45.992;12.666;2023-07-24T00:50:07;12.05;;;5.10;;
41661;SDS011;27351;45.992;12.666;2023-07-24T00:52:33;9.23;;;4.38;;
41661;SDS011;27351;45.992;12.666;2023-07-24T00:54:59;9.45;;;4.72;;
41661;SDS011;27351;45.992;12.666;2023-07-24T00:57:25;10.82;;;5.03;;
41661;SDS011;27351;45.992;12.666;2023-07-24T00:59:50;10.77;;;5.13;;
41661;SDS011;27351;45.992;12.666;2023-07-24T01:02:16;9.82;;;5.25;;
41661;SDS011;27351;45.992;12.666;2023-07-24T01:04:41;11.30;;;5.20;;
41661;SDS011;27351;45.992;12.666;2023-07-24T01:07:07;10.80;;;5.57;;
41661;SDS011;27351;45.992;12.666;2023-07-24T01:09:33;11.10;;;5.10;;
41661;SDS011;27351;45.992;12.666;2023-07-24T01:12:03;10.25;;;4.78;;
41661;SDS011;27351;45.992;12.666;2023-07-24T01:14:31;11.10;;;5.20;;
41661;SDS011;27351;45.992;12.666;2023-07-24T01:16:58;9.82;;;5.00;;
41661;SDS011;27351;45.992;12.666;2023-07-24T01:22:10;10.77;;;5.50;;
41661;SDS011;27351;45.992;12.666;2023-07-24T01:25:25;9.40;;;4.72;;
41661;SDS011;27351;45.992;12.666;2023-07-24T01:27:23;9.68;;;5.13;;
41661;SDS011;27351;45.992;12.666;2023-07-24T01:29:49;8.97;;;4.70;;
41661;SDS011;27351;45.992;12.666;2023-07-24T01:32:14;9.17;;;5.17;;
41661;SDS011;27351;45.992;12.666;2023-07-24T01:34:40;10.80;;;5.05;;
41661;SDS011;27351;45.992;12.666;2023-07-24T01:37:06;11.05;;;4.85;;
41661;SDS011;27351;45.992;12.666;2023-07-24T01:39:32;10.25;;;5.65;;
41661;SDS011;27351;45.992;12.666;2023-07-24T01:41:58;10.15;;;5.57;;
41661;SDS011;27351;45.992;12.666;2023-07-24T01:44:24;11.20;;;5.18;;
41661;SDS011;27351;45.992;12.666;2023-07-24T01:46:49;10.60;;;5.20;;
41661;SDS011;27351;45.992;12.666;2023-07-24T01:49:15;9.32;;;5.35;;
41661;SDS011;27351;45.992;12.666;2023-07-24T01:51:43;10.75;;;5.05;;
41661;SDS011;27351;45.992;12.666;2023-07-24T01:54:08;11.43;;;5.23;;
41661;SDS011;27351;45.992;12.666;2023-07-24T01:56:35;11.27;;;5.68;;
41661;SDS011;27351;45.992;12.666;2023-07-24T01:59:01;10.45;;;4.95;;
41661;SDS011;27351;45.992;12.666;2023-07-24T02:01:26;10.63;;;4.95;;
41661;SDS011;27351;45.992;12.666;2023-07-24T02:03:52;9.67;;;5.60;;
41661;SDS011;27351;45.992;12.666;2023-07-24T02:06:18;9.82;;;4.55;;
41661;SDS011;27351;45.992;12.666;2023-07-24T02:08:43;10.30;;;4.68;;
41661;SDS011;27351;45.992;12.666;2023-07-24T02:11:15;10.43;;;4.95;;
41661;SDS011;27351;45.992;12.666;2023-07-24T02:13:43;9.40;;;4.80;;
41661;SDS011;27351;45.992;12.666;2023-07-24T02:16:09;12.30;;;5.65;;
41661;SDS011;27351;45.992;12.666;2023-07-24T02:18:34;16.90;;;5.32;;
41661;SDS011;27351;45.992;12.666;2023-07-24T02:21:00;10.20;;;5.20;;
41661;SDS011;27351;45.992;12.666;2023-07-24T02:23:25;10.30;;;5.40;;
41661;SDS011;27351;45.992;12.666;2023-07-24T02:25:51;9.35;;;5.03;;
41661;SDS011;27351;45.992;12.666;2023-07-24T02:28:18;11.30;;;5.70;;
41661;SDS011;27351;45.992;12.666;2023-07-24T02:30:44;11.00;;;4.97;;
41661;SDS011;27351;45.992;12.666;2023-07-24T02:33:11;11.40;;;5.47;;
41661;SDS011;27351;45.992;12.666;2023-07-24T02:35:40;11.65;;;5.32;;
41661;SDS011;27351;45.992;12.666;2023-07-24T02:38:06;9.93;;;5.07;;
41661;SDS011;27351;45.992;12.666;2023-07-24T02:40:32;9.40;;;5.20;;
41661;SDS011;27351;45.992;12.666;2023-07-24T02:42:57;12.13;;;5.10;;
41661;SDS011;27351;45.992;12.666;2023-07-24T02:45:23;11.13;;;4.53;;
41661;SDS011;27351;45.992;12.666;2023-07-24T02:47:49;10.88;;;4.70;;
41661;SDS011;27351;45.992;12.666;2023-07-24T02:50:14;9.32;;;4.72;;
41661;SDS011;27351;45.992;12.666;2023-07-24T02:52:40;9.23;;;4.90;;
41661;SDS011;27351;45.992;12.666;2023-07-24T02:55:05;10.60;;;4.73;;
41661;SDS011;27351;45.992;12.666;2023-07-24T02:57:31;10.15;;;4.97;;
41661;SDS011;27351;45.992;12.666;2023-07-24T02:59:57;11.73;;;5.70;;
41661;SDS011;27351;45.992;12.666;2023-07-24T03:02:22;12.37;;;5.07;;
41661;SDS011;27351;45.992;12.666;2023-07-24T03:04:48;9.83;;;5.33;;
41661;SDS011;27351;45.992;12.666;2023-07-24T03:07:13;9.80;;;5.17;;
41661;SDS011;27351;45.992;12.666;2023-07-24T03:09:39;10.10;;;4.57;;
41661;SDS011;27351;45.992;12.666;2023-07-24T03:12:04;10.97;;;4.97;;
41661;SDS011;27351;45.992;12.666;2023-07-24T03:14:30;10.18;;;5.05;;
41661;SDS011;27351;45.992;12.666;2023-07-24T03:16:55;11.20;;;5.45;;
41661;SDS011;27351;45.992;12.666;2023-07-24T03:19:22;12.30;;;5.03;;
41661;SDS011;27351;45.992;12.666;2023-07-24T03:21:47;10.97;;;5.10;;
41661;SDS011;27351;45.992;12.666;2023-07-24T03:24:13;9.60;;;5.03;;
41661;SDS011;27351;45.992;12.666;2023-07-24T03:26:38;11.48;;;5.65;;
41661;SDS011;27351;45.992;12.666;2023-07-24T03:29:04;9.50;;;5.50;;
41661;SDS011;27351;45.992;12.666;2023-07-24T03:31:30;12.43;;;5.22;;
41661;SDS011;27351;45.992;12.666;2023-07-24T03:33:55;11.02;;;5.60;;
41661;SDS011;27351;45.992;12.666;2023-07-24T03:36:21;12.33;;;6.00;;
41661;SDS011;27351;45.992;12.666;2023-07-24T03:38:46;11.53;;;6.17;;
41661;SDS011;27351;45.992;12.666;2023-07-24T03:41:12;13.48;;;6.32;;
41661;SDS011;27351;45.992;12.666;2023-07-24T03:43:37;12.73;;;6.63;;
41661;SDS011;27351;45.992;12.666;2023-07-24T03:46:03;12.20;;;6.53;;
41661;SDS011;27351;45.992;12.666;2023-07-24T03:48:28;10.90;;;6.27;;
41661;SDS011;27351;45.992;12.666;2023-07-24T03:51:00;11.07;;;6.47;;
41661;SDS011;27351;45.992;12.666;2023-07-24T03:53:26;14.60;;;7.00;;
41661;SDS011;27351;45.992;12.666;2023-07-24T03:55:52;12.77;;;6.70;;
41661;SDS011;27351;45.992;12.666;2023-07-24T03:58:17;14.00;;;6.13;;
41661;SDS011;27351;45.992;12.666;2023-07-24T04:00:43;13.33;;;6.50;;
41661;SDS011;27351;45.992;12.666;2023-07-24T04:03:08;12.13;;;6.30;;
41661;SDS011;27351;45.992;12.666;2023-07-24T04:05:34;14.30;;;6.33;;
41661;SDS011;27351;45.992;12.666;2023-07-24T04:08:00;11.67;;;6.03;;
41661;SDS011;27351;45.992;12.666;2023-07-24T04:10:25;11.63;;;5.63;;
41661;SDS011;27351;45.992;12.666;2023-07-24T04:12:51;12.38;;;5.90;;
41661;SDS011;27351;45.992;12.666;2023-07-24T04:15:17;12.10;;;5.80;;
41661;SDS011;27351;45.992;12.666;2023-07-24T04:17:42;13.17;;;6.50;;
41661;SDS011;27351;45.992;12.666;2023-07-24T04:20:08;11.95;;;5.93;;
41661;SDS011;27351;45.992;12.666;2023-07-24T04:22:34;11.75;;;5.68;;
41661;SDS011;27351;45.992;12.666;2023-07-24T04:24:59;9.55;;;5.57;;
41661;SDS011;27351;45.992;12.666;2023-07-24T04:27:25;12.43;;;5.87;;
41661;SDS011;27351;45.992;12.666;2023-07-24T04:29:51;11.33;;;5.93;;
41661;SDS011;27351;45.992;12.666;2023-07-24T04:32:16;11.20;;;5.75;;
41661;SDS011;27351;45.992;12.666;2023-07-24T04:34:42;11.93;;;5.30;;
41661;SDS011;27351;45.992;12.666;2023-07-24T04:37:07;12.50;;;5.85;;
41661;SDS011;27351;45.992;12.666;2023-07-24T04:39:33;10.27;;;5.40;;
41661;SDS011;27351;45.992;12.666;2023-07-24T04:41:59;11.57;;;5.70;;
41661;SDS011;27351;45.992;12.666;2023-07-24T04:44:24;12.82;;;5.18;;
41661;SDS011;27351;45.992;12.666;2023-07-24T04:46:50;10.27;;;5.28;;
41661;SDS011;27351;45.992;12.666;2023-07-24T04:49:15;10.43;;;6.07;;
41661;SDS011;27351;45.992;12.666;2023-07-24T04:51:41;13.57;;;5.88;;
41661;SDS011;27351;45.992;12.666;2023-07-24T04:54:07;10.82;;;4.95;;
41661;SDS011;27351;45.992;12.666;2023-07-24T04:56:32;10.93;;;5.10;;
41661;SDS011;27351;45.992;12.666;2023-07-24T04:58:58;11.57;;;5.00;;
41661;SDS011;27351;45.992;12.666;2023-07-24T05:01:23;11.80;;;5.32;;
41661;SDS011;27351;45.992;12.666;2023-07-24T05:03:49;9.60;;;4.70;;
41661;SDS011;27351;45.992;12.666;2023-07-24T05:06:15;13.23;;;5.47;;
41661;SDS011;27351;45.992;12.666;2023-07-24T05:08:40;10.40;;;5.03;;
41661;SDS011;27351;45.992;12.666;2023-07-24T05:11:05;11.63;;;5.72;;
41661;SDS011;27351;45.992;12.666;2023-07-24T05:13:31;10.17;;;4.50;;
41661;SDS011;27351;45.992;12.666;2023-07-24T05:15:57;10.10;;;5.00;;
41661;SDS011;27351;45.992;12.666;2023-07-24T05:18:22;9.85;;;4.90;;
41661;SDS011;27351;45.992;12.666;2023-07-24T05:20:48;8.77;;;4.53;;
41661;SDS011;27351;45.992;12.666;2023-07-24T05:23:16;10.38;;;5.00;;
41661;SDS011;27351;45.992;12.666;2023-07-24T05:25:42;11.87;;;5.57;;
41661;SDS011;27351;45.992;12.666;2023-07-24T05:28:08;13.30;;;5.70;;
41661;SDS011;27351;45.992;12.666;2023-07-24T05:30:33;9.35;;;4.88;;
41661;SDS011;27351;45.992;12.666;2023-07-24T05:32:59;12.18;;;5.00;;
41661;SDS011;27351;45.992;12.666;2023-07-24T05:35:25;9.83;;;4.20;;
41661;SDS011;27351;45.992;12.666;2023-07-24T05:37:50;10.67;;;4.73;;
41661;SDS011;27351;45.992;12.666;2023-07-24T05:40:16;13.80;;;5.80;;
41661;SDS011;27351;45.992;12.666;2023-07-24T05:42:41;11.70;;;5.07;;
41661;SDS011;27351;45.992;12.666;2023-07-24T05:45:09;10.23;;;4.47;;
41661;SDS011;27351;45.992;12.666;2023-07-24T05:47:34;9.85;;;4.55;;
41661;SDS011;27351;45.992;12.666;2023-07-24T05:50:00;11.13;;;4.45;;
41661;SDS011;27351;45.992;12.666;2023-07-24T05:52:25;11.10;;;4.50;;
41661;SDS011;27351;45.992;12.666;2023-07-24T05:54:51;10.85;;;4.65;;
41661;SDS011;27351;45.992;12.666;2023-07-24T05:57:16;10.80;;;4.77;;
41661;SDS011;27351;45.992;12.666;2023-07-24T05:59:42;13.02;;;4.88;;
41661;SDS011;27351;45.992;12.666;2023-07-24T06:02:07;9.13;;;4.37;;
41661;SDS011;27351;45.992;12.666;2023-07-24T06:04:34;10.18;;;4.10;;
41661;SDS011;27351;45.992;12.666;2023-07-24T06:06:59;9.93;;;4.47;;
41661;SDS011;27351;45.992;12.666;2023-07-24T06:09:25;11.18;;;4.85;;
41661;SDS011;27351;45.992;12.666;2023-07-24T06:11:51;9.67;;;4.70;;
41661;SDS011;27351;45.992;12.666;2023-07-24T06:14:16;11.57;;;4.97;;
41661;SDS011;27351;45.992;12.666;2023-07-24T06:16:42;10.27;;;4.77;;
41661;SDS011;27351;45.992;12.666;2023-07-24T06:19:07;9.97;;;4.60;;
41661;SDS011;27351;45.992;12.666;2023-07-24T06:21:33;9.53;;;4.93;;
41661;SDS011;27351;45.992;12.666;2023-07-24T06:23:58;9.73;;;4.67;;
41661;SDS011;27351;45.992;12.666;2023-07-24T06:26:24;10.10;;;4.80;;
41661;SDS011;27351;45.992;12.666;2023-07-24T06:28:49;9.97;;;4.80;;
41661;SDS011;27351;45.992;12.666;2023-07-24T06:31:15;9.87;;;4.40;;
41661;SDS011;27351;45.992;12.666;2023-07-24T06:33:40;9.83;;;4.30;;
41661;SDS011;27351;45.992;12.666;2023-07-24T06:36:09;9.90;;;4.50;;
41661;SDS011;27351;45.992;12.666;2023-07-24T06:38:35;10.20;;;4.50;;
41661;SDS011;27351;45.992;12.666;2023-07-24T06:41:01;9.40;;;4.25;;
41661;SDS011;27351;45.992;12.666;2023-07-24T06:43:28;10.45;;;3.78;;
41661;SDS011;27351;45.992;12.666;2023-07-24T06:45:53;9.90;;;4.57;;
41661;SDS011;27351;45.992;12.666;2023-07-24T06:48:19;9.37;;;4.33;;
41661;SDS011;27351;45.992;12.666;2023-07-24T06:50:45;8.87;;;4.20;;
41661;SDS011;27351;45.992;12.666;2023-07-24T06:53:10;10.60;;;4.20;;
41661;SDS011;27351;45.992;12.666;2023-07-24T06:55:36;7.63;;;4.33;;
41661;SDS011;27351;45.992;12.666;2023-07-24T06:58:01;9.10;;;3.97;;
41661;SDS011;27351;45.992;12.666;2023-07-24T07:00:27;9.33;;;3.97;;
41661;SDS011;27351;45.992;12.666;2023-07-24T07:02:52;8.60;;;3.77;;
41661;SDS011;27351;45.992;12.666;2023-07-24T07:05:18;8.60;;;3.67;;
41661;SDS011;27351;45.992;12.666;2023-07-24T07:07:43;8.90;;;4.40;;
41661;SDS011;27351;45.992;12.666;2023-07-24T07:10:09;8.82;;;4.72;;
41661;SDS011;27351;45.992;12.666;2023-07-24T07:12:35;7.80;;;4.17;;
41661;SDS011;27351;45.992;12.666;2023-07-24T07:15:01;8.57;;;4.40;;
41661;SDS011;27351;45.992;12.666;2023-07-24T07:17:26;8.20;;;4.07;;
41661;SDS011;27351;45.992;12.666;2023-07-24T07:19:52;10.55;;;4.68;;
41661;SDS011;27351;45.992;12.666;2023-07-24T07:22:17;9.53;;;4.80;;
41661;SDS011;27351;45.992;12.666;2023-07-24T07:24:43;10.98;;;4.60;;
41661;SDS011;27351;45.992;12.666;2023-07-24T07:27:09;10.25;;;4.57;;
41661;SDS011;27351;45.992;12.666;2023-07-24T07:29:35;7.63;;;4.10;;
41661;SDS011;27351;45.992;12.666;2023-07-24T07:32:00;7.15;;;3.78;;
41661;SDS011;27351;45.992;12.666;2023-07-24T07:34:26;10.60;;;4.73;;
41661;SDS011;27351;45.992;12.666;2023-07-24T07:36:51;8.73;;;3.77;;
41661;SDS011;27351;45.992;12.666;2023-07-24T07:39:17;10.57;;;3.80;;
41661;SDS011;27351;45.992;12.666;2023-07-24T07:41:42;8.57;;;4.17;;
41661;SDS011;27351;45.992;12.666;2023-07-24T07:44:08;8.70;;;3.93;;
41661;SDS011;27351;45.992;12.666;2023-07-24T07:46:34;8.90;;;4.13;;
41661;SDS011;27351;45.992;12.666;2023-07-24T07:48:59;9.97;;;3.97;;
41661;SDS011;27351;45.992;12.666;2023-07-24T07:51:25;12.57;;;4.03;;
41661;SDS011;27351;45.992;12.666;2023-07-24T07:53:51;11.60;;;4.40;;
41661;SDS011;27351;45.992;12.666;2023-07-24T07:56:17;11.95;;;4.20;;
41661;SDS011;27351;45.992;12.666;2023-07-24T07:58:42;8.30;;;4.33;;
41661;SDS011;27351;45.992;12.666;2023-07-24T08:01:08;9.88;;;4.00;;
41661;SDS011;27351;45.992;12.666;2023-07-24T08:03:33;9.73;;;4.17;;
41661;SDS011;27351;45.992;12.666;2023-07-24T08:05:59;9.90;;;4.00;;
41661;SDS011;27351;45.992;12.666;2023-07-24T08:08:25;8.07;;;4.35;;
41661;SDS011;27351;45.992;12.666;2023-07-24T08:10:51;12.35;;;5.18;;
41661;SDS011;27351;45.992;12.666;2023-07-24T08:13:17;9.10;;;3.60;;
41661;SDS011;27351;45.992;12.666;2023-07-24T08:15:42;7.27;;;3.77;;
41661;SDS011;27351;45.992;12.666;2023-07-24T08:18:08;11.83;;;4.27;;
41661;SDS011;27351;45.992;12.666;2023-07-24T08:20:36;7.90;;;3.30;;
41661;SDS011;27351;45.992;12.666;2023-07-24T08:23:02;6.35;;;3.05;;
41661;SDS011;27351;45.992;12.666;2023-07-24T08:25:27;8.00;;;3.43;;
41661;SDS011;27351;45.992;12.666;2023-07-24T08:27:53;8.30;;;3.35;;
41661;SDS011;27351;45.992;12.666;2023-07-24T08:30:19;8.47;;;3.40;;
41661;SDS011;27351;45.992;12.666;2023-07-24T08:32:44;8.52;;;3.20;;
41661;SDS011;27351;45.992;12.666;2023-07-24T08:37:35;6.70;;;3.40;;
41661;SDS011;27351;45.992;12.666;2023-07-24T08:40:01;8.25;;;3.25;;
41661;SDS011;27351;45.992;12.666;2023-07-24T08:42:26;9.57;;;4.07;;
41661;SDS011;27351;45.992;12.666;2023-07-24T08:44:53;8.00;;;3.53;;
41661;SDS011;27351;45.992;12.666;2023-07-24T08:47:19;7.97;;;4.10;;
41661;SDS011;27351;45.992;12.666;2023-07-24T08:49:45;8.35;;;3.90;;
41661;SDS011;27351;45.992;12.666;2023-07-24T08:52:11;8.68;;;3.60;;
41661;SDS011;27351;45.992;12.666;2023-07-24T08:54:37;8.48;;;3.60;;
41661;SDS011;27351;45.992;12.666;2023-07-24T08:57:04;8.63;;;3.65;;
41661;SDS011;27351;45.992;12.666;2023-07-24T08:59:30;8.05;;;3.75;;
41661;SDS011;27351;45.992;12.666;2023-07-24T09:01:56;7.25;;;3.28;;
41661;SDS011;27351;45.992;12.666;2023-07-24T09:04:21;10.17;;;4.23;;
41661;SDS011;27351;45.992;12.666;2023-07-24T09:06:47;7.97;;;3.65;;
41661;SDS011;27351;45.992;12.666;2023-07-24T09:09:14;8.50;;;3.90;;
41661;SDS011;27351;45.992;12.666;2023-07-24T09:11:52;9.43;;;4.15;;
41661;SDS011;27351;45.992;12.666;2023-07-24T09:14:22;8.52;;;4.22;;
41661;SDS011;27351;45.992;12.666;2023-07-24T09:16:48;8.38;;;3.67;;
41661;SDS011;27351;45.992;12.666;2023-07-24T09:19:17;8.90;;;3.50;;
41661;SDS011;27351;45.992;12.666;2023-07-24T09:21:43;6.85;;;3.25;;
41661;SDS011;27351;45.992;12.666;2023-07-24T09:24:10;8.85;;;3.67;;
41661;SDS011;27351;45.992;12.666;2023-07-24T09:26:45;9.65;;;3.80;;
41661;SDS011;27351;45.992;12.666;2023-07-24T09:29:11;9.50;;;3.97;;
41661;SDS011;27351;45.992;12.666;2023-07-24T09:31:36;9.33;;;3.73;;
41661;SDS011;27351;45.992;12.666;2023-07-24T09:34:02;7.77;;;3.93;;
41661;SDS011;27351;45.992;12.666;2023-07-24T09:36:36;9.57;;;4.00;;
41661;SDS011;27351;45.992;12.666;2023-07-24T09:39:02;9.03;;;3.80;;
41661;SDS011;27351;45.992;12.666;2023-07-24T09:41:31;10.27;;;4.43;;
41661;SDS011;27351;45.992;12.666;2023-07-24T09:43:59;9.43;;;4.10;;
41661;SDS011;27351;45.992;12.666;2023-07-24T09:46:25;9.18;;;3.80;;
41661;SDS011;27351;45.992;12.666;2023-07-24T09:48:51;8.98;;;3.85;;
41661;SDS011;27351;45.992;12.666;2023-07-24T09:51:17;10.95;;;4.18;;
41661;SDS011;27351;45.992;12.666;2023-07-24T09:54:06;9.73;;;3.90;;
41661;SDS011;27351;45.992;12.666;2023-07-24T09:56:28;8.20;;;4.03;;
41661;SDS011;27351;45.992;12.666;2023-07-24T09:58:55;7.68;;;4.20;;
41661;SDS011;27351;45.992;12.666;2023-07-24T10:01:21;8.52;;;3.92;;
41661;SDS011;27351;45.992;12.666;2023-07-24T10:03:47;7.78;;;3.80;;
41661;SDS011;27351;45.992;12.666;2023-07-24T10:06:13;9.15;;;3.85;;
41661;SDS011;27351;45.992;12.666;2023-07-24T10:08:43;9.43;;;3.97;;
41661;SDS011;27351;45.992;12.666;2023-07-24T10:11:09;7.03;;;3.80;;
41661;SDS011;27351;45.992;12.666;2023-07-24T10:13:36;8.27;;;4.00;;
41661;SDS011;27351;45.992;12.666;2023-07-24T10:16:02;8.40;;;3.70;;
41661;SDS011;27351;45.992;12.666;2023-07-24T10:18:30;10.43;;;4.00;;
41661;SDS011;27351;45.992;12.666;2023-07-24T10:21:03;7.57;;;4.03;;
41661;SDS011;27351;45.992;12.666;2023-07-24T10:23:29;8.75;;;3.60;;
41661;SDS011;27351;45.992;12.666;2023-07-24T10:25:54;8.60;;;4.30;;
41661;SDS011;27351;45.992;12.666;2023-07-24T10:28:29;9.20;;;3.97;;
41661;SDS011;27351;45.992;12.666;2023-07-24T10:30:55;11.98;;;4.30;;
41661;SDS011;27351;45.992;12.666;2023-07-24T10:33:21;10.50;;;4.20;;
41661;SDS011;27351;45.992;12.666;2023-07-24T10:35:49;11.60;;;4.53;;
41661;SDS011;27351;45.992;12.666;2023-07-24T10:38:15;12.00;;;4.40;;
41661;SDS011;27351;45.992;12.666;2023-07-24T10:40:41;10.18;;;4.57;;
41661;SDS011;27351;45.992;12.666;2023-07-24T10:43:07;9.20;;;4.05;;
41661;SDS011;27351;45.992;12.666;2023-07-24T10:45:40;9.07;;;4.32;;
41661;SDS011;27351;45.992;12.666;2023-07-24T10:48:06;9.82;;;4.72;;
41661;SDS011;27351;45.992;12.666;2023-07-24T10:50:42;10.30;;;4.80;;
41661;SDS011;27351;45.992;12.666;2023-07-24T10:53:08;9.48;;;4.00;;
41661;SDS011;27351;45.992;12.666;2023-07-24T10:55:33;14.02;;;4.68;;
41661;SDS011;27351;45.992;12.666;2023-07-24T10:57:59;10.60;;;4.30;;
41661;SDS011;27351;45.992;12.666;2023-07-24T11:00:25;12.50;;;5.03;;
41661;SDS011;27351;45.992;12.666;2023-07-24T11:02:52;8.05;;;4.03;;
41661;SDS011;27351;45.992;12.666;2023-07-24T11:05:17;8.82;;;3.80;;
41661;SDS011;27351;45.992;12.666;2023-07-24T11:07:44;10.02;;;4.30;;
41661;SDS011;27351;45.992;12.666;2023-07-24T11:10:20;10.00;;;4.00;;
41661;SDS011;27351;45.992;12.666;2023-07-24T11:12:46;9.73;;;4.13;;
41661;SDS011;27351;45.992;12.666;2023-07-24T11:15:12;9.00;;;4.13;;
41661;SDS011;27351;45.992;12.666;2023-07-24T11:17:38;8.98;;;3.95;;
41661;SDS011;27351;45.992;12.666;2023-07-24T11:20:11;12.02;;;4.72;;
41661;SDS011;27351;45.992;12.666;2023-07-24T11:22:40;8.83;;;3.80;;
41661;SDS011;27351;45.992;12.666;2023-07-24T11:25:06;9.60;;;4.30;;
41661;SDS011;27351;45.992;12.666;2023-07-24T11:27:32;10.02;;;4.18;;
41661;SDS011;27351;45.992;12.666;2023-07-24T11:29:58;11.83;;;4.73;;
41661;SDS011;27351;45.992;12.666;2023-07-24T11:32:23;9.50;;;4.40;;
41661;SDS011;27351;45.992;12.666;2023-07-24T11:34:49;11.02;;;4.53;;
41661;SDS011;27351;45.992;12.666;2023-07-24T11:37:15;8.88;;;4.45;;
41661;SDS011;27351;45.992;12.666;2023-07-24T11:39:41;9.45;;;3.83;;
41661;SDS011;27351;45.992;12.666;2023-07-24T11:42:07;10.13;;;4.37;;
41661;SDS011;27351;45.992;12.666;2023-07-24T11:44:32;9.82;;;4.38;;
41661;SDS011;27351;45.992;12.666;2023-07-24T11:47:04;8.80;;;4.30;;
41661;SDS011;27351;45.992;12.666;2023-07-24T11:49:30;9.77;;;4.03;;
41661;SDS011;27351;45.992;12.666;2023-07-24T11:52:00;28.10;;;6.45;;
41661;SDS011;27351;45.992;12.666;2023-07-24T11:54:26;26.40;;;6.85;;
41661;SDS011;27351;45.992;12.666;2023-07-24T11:56:51;13.40;;;4.00;;
41661;SDS011;27351;45.992;12.666;2023-07-24T11:59:17;9.80;;;4.78;;
41661;SDS011;27351;45.992;12.666;2023-07-24T12:01:46;12.33;;;4.60;;
41661;SDS011;27351;45.992;12.666;2023-07-24T12:04:13;9.13;;;4.63;;
41661;SDS011;27351;45.992;12.666;2023-07-24T12:06:39;12.20;;;4.30;;
41661;SDS011;27351;45.992;12.666;2023-07-24T12:09:05;10.23;;;4.43;;
41661;SDS011;27351;45.992;12.666;2023-07-24T12:11:31;11.70;;;4.75;;
41661;SDS011;27351;45.992;12.666;2023-07-24T12:13:56;10.05;;;4.90;;
41661;SDS011;27351;45.992;12.666;2023-07-24T12:16:22;10.97;;;4.70;;
41661;SDS011;27351;45.992;12.666;2023-07-24T12:18:47;8.48;;;4.15;;
41661;SDS011;27351;45.992;12.666;2023-07-24T12:21:13;11.90;;;5.23;;
41661;SDS011;27351;45.992;12.666;2023-07-24T12:23:38;10.53;;;5.03;;
41661;SDS011;27351;45.992;12.666;2023-07-24T12:26:04;10.38;;;5.15;;
41661;SDS011;27351;45.992;12.666;2023-07-24T12:28:29;9.30;;;4.50;;
41661;SDS011;27351;45.992;12.666;2023-07-24T12:30:55;11.30;;;5.13;;
41661;SDS011;27351;45.992;12.666;2023-07-24T12:33:21;9.75;;;4.65;;
41661;SDS011;27351;45.992;12.666;2023-07-24T12:35:49;10.50;;;4.93;;
41661;SDS011;27351;45.992;12.666;2023-07-24T12:38:14;9.43;;;5.07;;
41661;SDS011;27351;45.992;12.666;2023-07-24T12:40:40;10.77;;;5.70;;
41661;SDS011;27351;45.992;12.666;2023-07-24T12:43:05;10.40;;;4.82;;
41661;SDS011;27351;45.992;12.666;2023-07-24T12:45:31;11.67;;;4.83;;
41661;SDS011;27351;45.992;12.666;2023-07-24T12:47:56;10.53;;;4.53;;
41661;SDS011;27351;45.992;12.666;2023-07-24T12:50:22;11.18;;;4.82;;
41661;SDS011;27351;45.992;12.666;2023-07-24T12:52:48;11.98;;;5.00;;
41661;SDS011;27351;45.992;12.666;2023-07-24T12:55:14;9.90;;;4.72;;
41661;SDS011;27351;45.992;12.666;2023-07-24T12:57:39;8.83;;;4.70;;
41661;SDS011;27351;45.992;12.666;2023-07-24T13:00:05;8.90;;;4.28;;
41661;SDS011;27351;45.992;12.666;2023-07-24T13:02:31;10.60;;;5.43;;
41661;SDS011;27351;45.992;12.666;2023-07-24T13:04:57;12.85;;;4.95;;
41661;SDS011;27351;45.992;12.666;2023-07-24T13:07:22;11.65;;;5.00;;
41661;SDS011;27351;45.992;12.666;2023-07-24T13:09:48;11.10;;;4.93;;
41661;SDS011;27351;45.992;12.666;2023-07-24T13:12:13;10.43;;;5.10;;
41661;SDS011;27351;45.992;12.666;2023-07-24T13:14:39;9.73;;;4.80;;
41661;SDS011;27351;45.992;12.666;2023-07-24T13:17:05;9.90;;;4.72;;
41661;SDS011;27351;45.992;12.666;2023-07-24T13:19:30;11.52;;;4.85;;
41661;SDS011;27351;45.992;12.666;2023-07-24T13:21:56;10.50;;;5.60;;
41661;SDS011;27351;45.992;12.666;2023-07-24T13:24:22;11.00;;;5.28;;
41661;SDS011;27351;45.992;12.666;2023-07-24T13:26:47;10.52;;;4.60;;
41661;SDS011;27351;45.992;12.666;2023-07-24T13:29:13;11.30;;;5.37;;
41661;SDS011;27351;45.992;12.666;2023-07-24T13:31:39;9.80;;;4.47;;
41661;SDS011;27351;45.992;12.666;2023-07-24T13:34:06;10.00;;;4.40;;
41661;SDS011;27351;45.992;12.666;2023-07-24T13:36:32;10.32;;;4.78;;
41661;SDS011;27351;45.992;12.666;2023-07-24T13:38:58;10.07;;;4.80;;
41661;SDS011;27351;45.992;12.666;2023-07-24T13:41:23;10.03;;;4.80;;
41661;SDS011;27351;45.992;12.666;2023-07-24T13:43:49;9.98;;;5.03;;
41661;SDS011;27351;45.992;12.666;2023-07-24T13:46:14;11.83;;;5.23;;
41661;SDS011;27351;45.992;12.666;2023-07-24T13:48:40;9.95;;;4.57;;
41661;SDS011;27351;45.992;12.666;2023-07-24T13:51:06;9.60;;;4.77;;
41661;SDS011;27351;45.992;12.666;2023-07-24T13:53:31;13.03;;;5.43;;
41661;SDS011;27351;45.992;12.666;2023-07-24T13:55:57;9.17;;;4.93;;
41661;SDS011;27351;45.992;12.666;2023-07-24T13:58:22;11.23;;;5.33;;
41661;SDS011;27351;45.992;12.666;2023-07-24T14:00:48;14.33;;;5.73;;
41661;SDS011;27351;45.992;12.666;2023-07-24T14:03:13;11.73;;;5.43;;
41661;SDS011;27351;45.992;12.666;2023-07-24T14:05:38;11.80;;;5.10;;
41661;SDS011;27351;45.992;12.666;2023-07-24T14:08:04;10.65;;;5.18;;
41661;SDS011;27351;45.992;12.666;2023-07-24T14:10:31;10.23;;;4.95;;
41661;SDS011;27351;45.992;12.666;2023-07-24T14:12:56;11.85;;;5.13;;
41661;SDS011;27351;45.992;12.666;2023-07-24T14:15:22;11.73;;;5.00;;
41661;SDS011;27351;45.992;12.666;2023-07-24T14:17:47;9.38;;;4.82;;
41661;SDS011;27351;45.992;12.666;2023-07-24T14:20:13;9.33;;;4.83;;
41661;SDS011;27351;45.992;12.666;2023-07-24T14:22:38;11.93;;;5.17;;
41661;SDS011;27351;45.992;12.666;2023-07-24T14:25:04;11.10;;;4.82;;